createdAt,value
2023-04-02T00:00:14.833Z,0.60
2023-04-02T00:05:50.514Z,0.40
2023-04-02T00:10:56.744Z,0.30
2023-04-02T00:16:00.189Z,0.20
2023-04-02T00:21:08.485Z,0.60
2023-04-02T00:26:23.710Z,0.10
2023-04-02T00:31:27.115Z,0.57
2023-04-02T00:36:31.166Z,0.40
2023-04-02T00:41:39.677Z,0.32
2023-04-02T00:46:48.173Z,0.22
2023-04-02T00:51:53.792Z,0.40
2023-04-02T00:56:59.309Z,0.00
2023-04-02T01:02:22.332Z,0.20
2023-04-02T01:07:33.266Z,0.47
2023-04-02T01:12:51.684Z,0.20
2023-04-02T01:18:03.565Z,0.30
2023-04-02T01:23:09.131Z,0.57
2023-04-02T01:28:19.444Z,0.20
2023-04-02T01:33:24.905Z,0.30
2023-04-02T01:38:29.124Z,0.30
2023-04-02T01:43:35.414Z,0.28
2023-04-02T01:48:40.571Z,0.45
2023-04-02T01:53:43.486Z,0.40
2023-04-02T01:58:49.409Z,0.32
2023-04-02T02:03:54.837Z,0.15
2023-04-02T02:08:59.247Z,0.10
2023-04-02T02:14:02.658Z,0.13
2023-04-02T02:19:22.509Z,0.22
2023-04-02T02:24:27.517Z,0.10
2023-04-02T02:29:31.138Z,0.40
2023-04-02T02:34:38.693Z,0.32
2023-04-02T02:39:43.046Z,0.17
2023-04-02T02:44:49.057Z,0.20
2023-04-02T02:49:54.521Z,0.10
2023-04-02T02:54:58.967Z,0.60
2023-04-02T03:00:02.649Z,0.43
2023-04-02T03:05:07.800Z,0.17
2023-04-02T03:10:14.502Z,0.22
2023-04-02T03:15:33.600Z,0.20
2023-04-02T03:20:40.923Z,0.30
2023-04-02T03:25:47.003Z,0.20
2023-04-02T03:30:58.627Z,0.13
2023-04-02T03:36:06.398Z,0.10
2023-04-02T03:41:14.571Z,0.30
2023-04-02T03:46:23.595Z,0.40
2023-04-02T03:51:29.145Z,0.32
2023-04-02T03:56:42.129Z,0.20
2023-04-02T04:01:48.107Z,0.40
2023-04-02T04:06:53.570Z,0.30
2023-04-02T04:12:10.576Z,0.38
2023-04-02T04:17:16.407Z,0.22
2023-04-02T04:22:30.404Z,0.17
2023-04-02T04:27:38.142Z,0.43
2023-04-02T04:32:50.060Z,0.30
2023-04-02T04:37:59.245Z,0.15
2023-04-02T04:43:04.225Z,0.20
2023-04-02T04:48:09.514Z,0.30
2023-04-02T04:53:17.121Z,0.43
2023-04-02T04:58:23.089Z,0.20
2023-04-02T05:03:29.760Z,0.30
2023-04-02T05:08:37.233Z,0.45
2023-04-02T05:13:42.185Z,0.50
2023-04-02T05:18:48.590Z,0.50
2023-04-02T05:23:55.872Z,0.13
2023-04-02T05:29:00.555Z,0.30
2023-04-02T05:34:04.565Z,0.40
2023-04-02T05:39:10.890Z,0.20
2023-04-02T05:44:17.755Z,0.40
2023-04-02T05:49:22.706Z,0.20
2023-04-02T05:54:30.031Z,0.10
2023-04-02T05:59:34.775Z,0.57
2023-04-02T06:04:43.721Z,0.40
2023-04-02T06:09:49.310Z,0.32
2023-04-02T06:14:52.849Z,0.22
2023-04-02T06:19:57.686Z,0.20
2023-04-02T06:25:04.570Z,0.40
2023-04-02T06:30:08.425Z,0.30
2023-04-02T06:35:13.297Z,0.60
2023-04-02T06:45:22.046Z,0.70
2023-04-02T06:50:31.120Z,0.52
2023-04-02T06:55:40.121Z,0.60
2023-04-02T07:00:45.894Z,0.50
2023-04-02T07:05:49.323Z,0.43
2023-04-02T07:10:57.333Z,0.50
2023-04-02T07:16:12.882Z,0.60
2023-04-02T07:21:16.368Z,1.33
2023-04-02T07:26:20.024Z,0.40
2023-04-02T07:31:25.981Z,0.60
2023-04-02T07:36:30.516Z,0.55
2023-04-02T07:41:33.888Z,0.50
2023-04-02T07:46:37.793Z,0.30
2023-04-02T07:51:41.192Z,0.60
2023-04-02T07:56:43.840Z,0.65
2023-04-02T08:01:48.183Z,0.73
2023-04-02T08:06:52.882Z,0.63
2023-04-02T08:11:55.519Z,0.35
2023-04-02T08:16:59.620Z,0.63
2023-04-02T08:22:03.069Z,0.80
2023-04-02T08:27:05.688Z,0.80
2023-04-02T08:32:11.563Z,0.50
2023-04-02T08:37:14.382Z,0.30
2023-04-02T08:42:22.550Z,0.40
2023-04-02T08:47:29.885Z,0.80
2023-04-02T08:52:33.633Z,0.80
2023-04-02T08:57:38.740Z,0.45
2023-04-02T09:02:45.947Z,1.00
2023-04-02T09:07:50.389Z,1.20
2023-04-02T09:12:53.815Z,0.90
2023-04-02T09:23:03.829Z,0.70
2023-04-02T09:28:11.520Z,0.68
2023-04-02T09:33:14.116Z,1.05
2023-04-02T09:38:22.596Z,1.00
2023-04-02T09:43:26.518Z,0.75
2023-04-02T09:53:35.972Z,0.75
2023-04-02T09:58:38.850Z,0.60
2023-04-02T10:03:43.734Z,0.70
2023-04-02T10:08:48.618Z,0.73
2023-04-02T10:13:53.624Z,1.02
2023-04-02T10:18:59.172Z,0.47
2023-04-02T10:24:05.199Z,1.00
2023-04-02T10:29:23.064Z,1.00
2023-04-02T10:34:30.323Z,0.85
2023-04-02T10:39:36.787Z,0.85
2023-04-02T10:44:44.658Z,0.60
2023-04-02T10:49:51.325Z,0.73
2023-04-02T10:54:57.344Z,1.02
2023-04-02T11:00:07.989Z,0.50
2023-04-02T11:05:20.778Z,0.80
2023-04-02T11:10:27.553Z,0.65
2023-04-02T11:15:30.665Z,0.98
2023-04-02T11:20:44.264Z,0.60
2023-04-02T11:25:49.662Z,0.90
2023-04-02T11:30:53.370Z,0.80
2023-04-02T11:35:56.872Z,0.80
2023-04-02T11:41:01.806Z,0.73
2023-04-02T11:46:05.504Z,0.80
2023-04-02T11:56:20.075Z,0.73
2023-04-02T12:01:30.406Z,0.82
2023-04-02T12:06:42.391Z,0.77
2023-04-02T12:11:47.334Z,0.80
2023-04-02T12:16:50.785Z,0.60
2023-04-02T12:21:54.558Z,1.10
2023-04-02T12:27:17.899Z,0.70
2023-04-02T12:32:22.997Z,0.85
2023-04-02T12:37:27.093Z,1.15
2023-04-02T12:42:32.806Z,0.98
2023-04-02T12:47:35.617Z,1.05
2023-04-02T12:52:45.226Z,1.07
2023-04-02T12:57:50.775Z,1.10
2023-04-02T13:03:01.073Z,1.10
2023-04-02T13:08:04.737Z,1.17
2023-04-02T13:13:14.624Z,1.05
2023-04-02T13:18:21.012Z,1.27
2023-04-02T13:23:25.452Z,1.20
2023-04-02T13:28:29.455Z,1.10
2023-04-02T13:38:34.997Z,1.23
2023-04-02T13:43:38.981Z,1.70
2023-04-02T13:53:44.077Z,1.60
2023-04-02T13:58:48.218Z,1.23
2023-04-02T14:03:51.854Z,1.10
2023-04-02T14:08:57.798Z,1.40
2023-04-02T14:14:11.676Z,0.80
2023-04-02T14:19:21.101Z,1.00
2023-04-02T14:24:28.678Z,3.20
2023-04-02T14:29:36.342Z,0.80
2023-04-02T14:34:54.765Z,0.70
2023-04-02T14:40:03.980Z,0.80
2023-04-02T14:45:11.028Z,0.30
2023-04-02T14:50:17.538Z,1.42
2023-04-02T14:55:25.088Z,0.85
2023-04-02T15:00:33.656Z,0.65
2023-04-02T15:05:41.846Z,0.77
2023-04-02T15:10:49.566Z,0.68
2023-04-02T15:15:56.954Z,1.02
2023-04-02T15:21:05.755Z,1.55
2023-04-02T15:26:13.648Z,1.00
2023-04-02T15:31:18.520Z,1.83
2023-04-02T15:36:41.720Z,0.95
2023-04-02T15:41:54.379Z,1.13
2023-04-02T15:47:06.498Z,1.45
2023-04-02T15:52:13.429Z,2.10
2023-04-02T15:57:21.855Z,1.60
2023-04-02T16:02:37.821Z,1.60
2023-04-02T16:07:52.940Z,1.70
2023-04-02T16:12:57.223Z,1.90
2023-04-02T16:18:02.845Z,1.80
2023-04-02T16:23:08.110Z,2.13
2023-04-02T16:28:16.303Z,2.47
2023-04-02T16:33:43.774Z,2.85
2023-04-02T16:38:53.973Z,2.45
2023-04-02T16:44:01.103Z,2.65
2023-04-02T16:49:07.897Z,3.08
2023-04-02T16:54:14.353Z,2.22
2023-04-02T16:59:20.985Z,2.60
2023-04-02T17:04:29.544Z,2.67
2023-04-02T17:09:41.809Z,2.67
2023-04-02T17:14:47.919Z,2.80
2023-04-02T17:19:52.197Z,2.30
2023-04-02T17:24:58.286Z,2.33
2023-04-02T17:30:02.499Z,2.35
2023-04-02T17:40:19.619Z,3.65
2023-04-02T17:45:25.335Z,2.75
2023-04-02T17:50:46.200Z,3.50
2023-04-02T17:56:00.329Z,2.83
2023-04-02T18:01:06.621Z,3.42
2023-04-02T18:06:11.461Z,3.63
2023-04-02T18:11:21.594Z,3.20
2023-04-02T18:16:34.248Z,3.15
2023-04-02T18:21:40.374Z,3.47
2023-04-02T18:26:49.316Z,3.80
2023-04-02T18:31:55.587Z,3.60
2023-04-02T18:37:04.819Z,3.55
2023-04-02T18:42:11.535Z,4.55
2023-04-02T18:47:20.997Z,3.33
2023-04-02T18:52:24.824Z,3.40
2023-04-02T18:57:30.509Z,3.50
2023-04-02T19:02:41.356Z,3.58
2023-04-02T19:07:46.596Z,4.22
2023-04-02T19:12:50.602Z,4.00
2023-04-02T19:28:07.408Z,3.55
2023-04-02T19:33:15.488Z,2.47
2023-04-02T19:38:29.679Z,4.10
2023-04-02T19:43:33.516Z,4.20
2023-04-02T19:48:40.759Z,4.55
2023-04-02T19:53:44.745Z,4.40
2023-04-02T19:58:48.674Z,4.35
2023-04-02T20:03:51.408Z,3.70
2023-04-02T20:08:55.073Z,4.05
2023-04-02T20:13:59.667Z,5.18
2023-04-02T20:19:02.109Z,4.40
2023-04-02T20:24:05.637Z,3.30
2023-04-02T20:29:09.852Z,3.37
2023-04-02T20:34:12.650Z,3.38
2023-04-02T20:39:19.365Z,3.95
2023-04-02T20:44:23.270Z,3.95
2023-04-02T20:49:26.653Z,4.20
2023-04-02T20:54:29.197Z,4.25
2023-04-02T20:59:32.907Z,3.90
2023-04-02T21:04:35.816Z,4.40
2023-04-02T21:09:38.426Z,4.32
2023-04-02T21:14:43.007Z,3.73
2023-04-02T21:19:45.862Z,4.90
2023-04-02T21:24:48.395Z,4.00
2023-04-02T21:29:52.260Z,3.35
2023-04-02T21:34:56.181Z,5.25
2023-04-02T21:39:58.690Z,4.22
2023-04-02T21:45:02.797Z,4.07
2023-04-02T21:50:06.086Z,4.38
2023-04-02T21:55:09.119Z,4.68
2023-04-02T22:00:15.760Z,5.30
2023-04-02T22:05:19.274Z,4.75
2023-04-02T22:10:22.719Z,3.42
2023-04-02T22:15:27.075Z,5.05
2023-04-02T22:20:30.837Z,5.57
2023-04-02T22:25:33.719Z,5.05
2023-04-02T22:30:38.639Z,5.95
2023-04-02T22:35:41.958Z,5.40
2023-04-02T22:40:46.631Z,4.80
2023-04-02T22:45:51.042Z,5.63
2023-04-02T22:50:53.860Z,5.95
2023-04-02T22:56:02.377Z,5.63
2023-04-02T23:01:08.289Z,5.68
2023-04-02T23:06:21.103Z,5.50
2023-04-02T23:11:25.913Z,5.20
2023-04-02T23:16:30.552Z,5.80
2023-04-02T23:21:33.050Z,6.07
2023-04-02T23:26:35.725Z,5.93
2023-04-02T23:31:39.587Z,6.15
2023-04-02T23:36:42.174Z,5.15
2023-04-02T23:41:45.726Z,5.70
2023-04-02T23:46:49.610Z,4.90
2023-04-02T23:51:53.109Z,5.10
2023-04-02T23:56:56.038Z,5.32
